sensor_id;sensor_type;location;lat;lon;timestamp;temperature;humidity
680;DHT22;322;48.846;9.230;2023-06-10T00:00:00;15.40;99.90
680;DHT22;322;48.846;9.230;2023-06-10T00:02:30;15.30;99.90
680;DHT22;322;48.846;9.230;2023-06-10T00:04:58;15.30;99.90
680;DHT22;322;48.846;9.230;2023-06-10T00:07:26;15.40;99.90
680;DHT22;322;48.846;9.230;2023-06-10T00:09:54;15.40;99.90
680;DHT22;322;48.846;9.230;2023-06-10T00:12:23;15.30;99.90
680;DHT22;322;48.846;9.230;2023-06-10T00:14:52;15.20;99.90
680;DHT22;322;48.846;9.230;2023-06-10T00:17:20;15.20;99.90
680;DHT22;322;48.846;9.230;2023-06-10T00:19:51;15.20;99.90
680;DHT22;322;48.846;9.230;2023-06-10T00:22:19;15.30;99.90
680;DHT22;322;48.846;9.230;2023-06-10T00:24:48;15.20;99.90
680;DHT22;322;48.846;9.230;2023-06-10T00:27:17;15.30;99.90
680;DHT22;322;48.846;9.230;2023-06-10T00:29:45;15.30;99.90
680;DHT22;322;48.846;9.230;2023-06-10T00:32:13;15.30;99.90
680;DHT22;322;48.846;9.230;2023-06-10T00:34:41;15.40;99.90
680;DHT22;322;48.846;9.230;2023-06-10T00:37:10;15.30;99.90
680;DHT22;322;48.846;9.230;2023-06-10T00:39:38;15.30;99.90
680;DHT22;322;48.846;9.230;2023-06-10T00:42:07;15.20;99.90
680;DHT22;322;48.846;9.230;2023-06-10T00:44:37;15.10;99.90
680;DHT22;322;48.846;9.230;2023-06-10T00:47:06;15.20;99.90
680;DHT22;322;48.846;9.230;2023-06-10T00:49:35;15.10;99.90
680;DHT22;322;48.846;9.230;2023-06-10T00:52:04;15.00;99.90
680;DHT22;322;48.846;9.230;2023-06-10T00:54:34;14.90;99.90
680;DHT22;322;48.846;9.230;2023-06-10T00:57:02;15.00;99.90
680;DHT22;322;48.846;9.230;2023-06-10T00:59:30;14.90;99.90
680;DHT22;322;48.846;9.230;2023-06-10T01:01:58;14.90;99.90
680;DHT22;322;48.846;9.230;2023-06-10T01:04:27;14.90;99.90
680;DHT22;322;48.846;9.230;2023-06-10T01:07:03;14.90;99.90
680;DHT22;322;48.846;9.230;2023-06-10T01:09:40;14.80;99.90
680;DHT22;322;48.846;9.230;2023-06-10T01:12:26;14.70;99.90
680;DHT22;322;48.846;9.230;2023-06-10T01:14:56;14.70;99.90
680;DHT22;322;48.846;9.230;2023-06-10T01:17:25;14.70;99.90
680;DHT22;322;48.846;9.230;2023-06-10T01:19:55;14.70;99.90
680;DHT22;322;48.846;9.230;2023-06-10T01:22:25;14.70;99.90
680;DHT22;322;48.846;9.230;2023-06-10T01:24:55;14.50;99.90
680;DHT22;322;48.846;9.230;2023-06-10T01:27:28;14.50;99.90
680;DHT22;322;48.846;9.230;2023-06-10T01:30:01;14.60;99.90
680;DHT22;322;48.846;9.230;2023-06-10T01:32:34;14.50;99.90
680;DHT22;322;48.846;9.230;2023-06-10T01:35:06;14.40;99.90
680;DHT22;322;48.846;9.230;2023-06-10T01:37:39;14.50;99.90
680;DHT22;322;48.846;9.230;2023-06-10T01:40:08;14.50;99.90
680;DHT22;322;48.846;9.230;2023-06-10T01:42:37;14.40;99.90
680;DHT22;322;48.846;9.230;2023-06-10T01:45:06;14.30;99.90
680;DHT22;322;48.846;9.230;2023-06-10T01:47:35;14.30;99.90
680;DHT22;322;48.846;9.230;2023-06-10T01:50:03;14.30;99.90
680;DHT22;322;48.846;9.230;2023-06-10T01:52:31;14.30;99.90
680;DHT22;322;48.846;9.230;2023-06-10T01:55:00;14.20;99.90
680;DHT22;322;48.846;9.230;2023-06-10T01:57:29;14.20;99.90
680;DHT22;322;48.846;9.230;2023-06-10T01:59:57;14.10;99.90
680;DHT22;322;48.846;9.230;2023-06-10T02:02:25;14.10;99.90
680;DHT22;322;48.846;9.230;2023-06-10T02:04:53;14.00;99.90
680;DHT22;322;48.846;9.230;2023-06-10T02:07:21;14.00;99.90
680;DHT22;322;48.846;9.230;2023-06-10T02:09:49;14.00;99.90
680;DHT22;322;48.846;9.230;2023-06-10T02:12:19;14.10;99.90
680;DHT22;322;48.846;9.230;2023-06-10T02:14:46;14.00;99.90
680;DHT22;322;48.846;9.230;2023-06-10T02:17:14;13.90;99.90
680;DHT22;322;48.846;9.230;2023-06-10T02:19:42;13.80;99.90
680;DHT22;322;48.846;9.230;2023-06-10T02:22:11;13.70;99.90
680;DHT22;322;48.846;9.230;2023-06-10T02:24:38;13.60;99.90
680;DHT22;322;48.846;9.230;2023-06-10T02:27:06;13.60;99.90
680;DHT22;322;48.846;9.230;2023-06-10T02:29:36;13.60;99.90
680;DHT22;322;48.846;9.230;2023-06-10T02:32:04;13.60;99.90
680;DHT22;322;48.846;9.230;2023-06-10T02:34:36;13.50;99.90
680;DHT22;322;48.846;9.230;2023-06-10T02:37:05;13.50;99.90
680;DHT22;322;48.846;9.230;2023-06-10T02:39:32;13.50;99.90
680;DHT22;322;48.846;9.230;2023-06-10T02:42:00;13.40;99.90
680;DHT22;322;48.846;9.230;2023-06-10T02:44:28;13.40;99.90
680;DHT22;322;48.846;9.230;2023-06-10T02:46:58;13.30;99.90
680;DHT22;322;48.846;9.230;2023-06-10T02:49:26;13.40;99.90
680;DHT22;322;48.846;9.230;2023-06-10T02:51:55;13.50;99.90
680;DHT22;322;48.846;9.230;2023-06-10T02:54:23;13.50;99.90
680;DHT22;322;48.846;9.230;2023-06-10T02:56:52;13.40;99.90
680;DHT22;322;48.846;9.230;2023-06-10T02:59:22;13.40;99.90
680;DHT22;322;48.846;9.230;2023-06-10T03:01:50;13.30;99.90
680;DHT22;322;48.846;9.230;2023-06-10T03:04:19;13.30;99.90
680;DHT22;322;48.846;9.230;2023-06-10T03:06:47;13.40;99.90
680;DHT22;322;48.846;9.230;2023-06-10T03:09:15;13.40;99.90
680;DHT22;322;48.846;9.230;2023-06-10T03:11:43;13.40;99.90
680;DHT22;322;48.846;9.230;2023-06-10T03:14:11;13.40;99.90
680;DHT22;322;48.846;9.230;2023-06-10T03:16:39;13.40;99.90
680;DHT22;322;48.846;9.230;2023-06-10T03:19:07;13.40;99.90
680;DHT22;322;48.846;9.230;2023-06-10T03:21:37;13.30;99.90
680;DHT22;322;48.846;9.230;2023-06-10T03:24:06;13.30;99.90
680;DHT22;322;48.846;9.230;2023-06-10T03:26:34;13.30;99.90
680;DHT22;322;48.846;9.230;2023-06-10T03:29:02;13.20;99.90
680;DHT22;322;48.846;9.230;2023-06-10T03:31:30;13.20;99.90
680;DHT22;322;48.846;9.230;2023-06-10T03:33:58;13.10;99.90
680;DHT22;322;48.846;9.230;2023-06-10T03:36:26;13.10;99.90
680;DHT22;322;48.846;9.230;2023-06-10T03:38:56;13.20;99.90
680;DHT22;322;48.846;9.230;2023-06-10T03:41:24;13.20;99.90
680;DHT22;322;48.846;9.230;2023-06-10T03:43:53;13.10;99.90
680;DHT22;322;48.846;9.230;2023-06-10T03:46:21;13.10;99.90
680;DHT22;322;48.846;9.230;2023-06-10T03:48:49;13.20;99.90
680;DHT22;322;48.846;9.230;2023-06-10T03:51:17;13.20;99.90
680;DHT22;322;48.846;9.230;2023-06-10T03:53:45;13.20;99.90
680;DHT22;322;48.846;9.230;2023-06-10T03:56:14;13.30;99.90
680;DHT22;322;48.846;9.230;2023-06-10T03:58:42;13.40;99.90
680;DHT22;322;48.846;9.230;2023-06-10T04:01:13;13.50;99.90
680;DHT22;322;48.846;9.230;2023-06-10T04:03:41;13.60;99.90
680;DHT22;322;48.846;9.230;2023-06-10T04:06:10;13.80;99.90
680;DHT22;322;48.846;9.230;2023-06-10T04:08:38;13.80;99.90
680;DHT22;322;48.846;9.230;2023-06-10T04:11:07;13.80;99.90
680;DHT22;322;48.846;9.230;2023-06-10T04:13:36;13.90;99.90
680;DHT22;322;48.846;9.230;2023-06-10T04:16:05;13.90;99.90
680;DHT22;322;48.846;9.230;2023-06-10T04:18:33;14.00;99.90
680;DHT22;322;48.846;9.230;2023-06-10T04:21:00;14.10;99.90
680;DHT22;322;48.846;9.230;2023-06-10T04:23:29;14.00;99.90
680;DHT22;322;48.846;9.230;2023-06-10T04:25:57;14.20;99.90
680;DHT22;322;48.846;9.230;2023-06-10T04:28:26;14.30;99.90
680;DHT22;322;48.846;9.230;2023-06-10T04:30:55;14.40;99.90
680;DHT22;322;48.846;9.230;2023-06-10T04:33:23;14.40;99.90
680;DHT22;322;48.846;9.230;2023-06-10T04:35:51;14.50;99.90
680;DHT22;322;48.846;9.230;2023-06-10T04:38:19;14.50;99.90
680;DHT22;322;48.846;9.230;2023-06-10T04:40:47;14.60;99.90
680;DHT22;322;48.846;9.230;2023-06-10T04:43:15;14.70;99.90
680;DHT22;322;48.846;9.230;2023-06-10T04:45:44;14.80;99.90
680;DHT22;322;48.846;9.230;2023-06-10T04:48:13;14.80;99.90
680;DHT22;322;48.846;9.230;2023-06-10T04:50:41;14.90;99.90
680;DHT22;322;48.846;9.230;2023-06-10T04:53:09;14.90;99.90
680;DHT22;322;48.846;9.230;2023-06-10T04:55:37;15.00;99.90
680;DHT22;322;48.846;9.230;2023-06-10T04:58:05;15.20;99.90
680;DHT22;322;48.846;9.230;2023-06-10T05:00:33;15.20;99.90
680;DHT22;322;48.846;9.230;2023-06-10T05:03:01;15.20;99.90
680;DHT22;322;48.846;9.230;2023-06-10T05:05:31;15.30;99.90
680;DHT22;322;48.846;9.230;2023-06-10T05:07:59;15.30;99.90
680;DHT22;322;48.846;9.230;2023-06-10T05:10:27;15.50;99.90
680;DHT22;322;48.846;9.230;2023-06-10T05:12:58;15.60;99.90
680;DHT22;322;48.846;9.230;2023-06-10T05:15:26;15.60;99.90
680;DHT22;322;48.846;9.230;2023-06-10T05:17:56;15.70;99.90
680;DHT22;322;48.846;9.230;2023-06-10T05:20:24;15.70;99.90
680;DHT22;322;48.846;9.230;2023-06-10T05:22:54;15.80;99.90
680;DHT22;322;48.846;9.230;2023-06-10T05:25:22;15.90;99.90
680;DHT22;322;48.846;9.230;2023-06-10T05:27:50;16.00;99.90
680;DHT22;322;48.846;9.230;2023-06-10T05:30:18;16.10;99.90
680;DHT22;322;48.846;9.230;2023-06-10T05:32:47;16.20;99.90
680;DHT22;322;48.846;9.230;2023-06-10T05:35:17;16.30;99.90
680;DHT22;322;48.846;9.230;2023-06-10T05:37:46;16.50;99.90
680;DHT22;322;48.846;9.230;2023-06-10T05:40:15;16.60;99.90
680;DHT22;322;48.846;9.230;2023-06-10T05:42:43;16.70;99.90
680;DHT22;322;48.846;9.230;2023-06-10T05:45:11;17.00;99.90
680;DHT22;322;48.846;9.230;2023-06-10T05:47:39;17.30;97.10
680;DHT22;322;48.846;9.230;2023-06-10T05:50:08;17.40;96.80
680;DHT22;322;48.846;9.230;2023-06-10T05:52:36;17.40;98.50
680;DHT22;322;48.846;9.230;2023-06-10T05:55:07;17.50;98.60
680;DHT22;322;48.846;9.230;2023-06-10T05:57:37;17.50;98.50
680;DHT22;322;48.846;9.230;2023-06-10T06:00:06;17.60;97.80
680;DHT22;322;48.846;9.230;2023-06-10T06:02:34;17.70;97.90
680;DHT22;322;48.846;9.230;2023-06-10T06:05:03;17.80;98.40
680;DHT22;322;48.846;9.230;2023-06-10T06:07:31;17.80;98.10
680;DHT22;322;48.846;9.230;2023-06-10T06:09:59;18.00;96.80
680;DHT22;322;48.846;9.230;2023-06-10T06:12:26;18.20;95.40
680;DHT22;322;48.846;9.230;2023-06-10T06:14:56;18.40;95.20
680;DHT22;322;48.846;9.230;2023-06-10T06:17:24;18.50;93.20
680;DHT22;322;48.846;9.230;2023-06-10T06:19:51;18.70;94.00
680;DHT22;322;48.846;9.230;2023-06-10T06:22:19;18.80;93.10
680;DHT22;322;48.846;9.230;2023-06-10T06:24:48;18.90;92.40
680;DHT22;322;48.846;9.230;2023-06-10T06:27:16;19.00;93.20
680;DHT22;322;48.846;9.230;2023-06-10T06:29:44;19.10;92.10
680;DHT22;322;48.846;9.230;2023-06-10T06:32:14;19.20;91.90
680;DHT22;322;48.846;9.230;2023-06-10T06:34:42;19.40;91.90
680;DHT22;322;48.846;9.230;2023-06-10T06:37:10;19.50;91.70
680;DHT22;322;48.846;9.230;2023-06-10T06:39:38;19.60;90.90
680;DHT22;322;48.846;9.230;2023-06-10T06:42:06;19.60;90.60
680;DHT22;322;48.846;9.230;2023-06-10T06:44:34;19.60;91.10
680;DHT22;322;48.846;9.230;2023-06-10T06:47:03;19.70;91.60
680;DHT22;322;48.846;9.230;2023-06-10T06:49:32;19.70;91.70
680;DHT22;322;48.846;9.230;2023-06-10T06:52:00;19.80;91.30
680;DHT22;322;48.846;9.230;2023-06-10T06:54:28;19.90;91.20
680;DHT22;322;48.846;9.230;2023-06-10T06:56:56;20.00;91.50
680;DHT22;322;48.846;9.230;2023-06-10T06:59:24;20.00;92.30
680;DHT22;322;48.846;9.230;2023-06-10T07:01:52;20.10;90.20
680;DHT22;322;48.846;9.230;2023-06-10T07:04:21;20.20;90.20
680;DHT22;322;48.846;9.230;2023-06-10T07:06:50;20.40;90.10
680;DHT22;322;48.846;9.230;2023-06-10T07:09:18;20.50;89.30
680;DHT22;322;48.846;9.230;2023-06-10T07:11:46;20.60;89.80
680;DHT22;322;48.846;9.230;2023-06-10T07:14:14;20.70;90.70
680;DHT22;322;48.846;9.230;2023-06-10T07:16:42;21.00;87.80
680;DHT22;322;48.846;9.230;2023-06-10T07:19:12;21.00;87.40
680;DHT22;322;48.846;9.230;2023-06-10T07:21:40;21.10;89.60
680;DHT22;322;48.846;9.230;2023-06-10T07:24:09;21.20;86.40
680;DHT22;322;48.846;9.230;2023-06-10T07:26:37;21.30;84.60
680;DHT22;322;48.846;9.230;2023-06-10T07:29:05;21.40;84.70
680;DHT22;322;48.846;9.230;2023-06-10T07:31:33;21.50;84.70
680;DHT22;322;48.846;9.230;2023-06-10T07:34:01;21.60;88.20
680;DHT22;322;48.846;9.230;2023-06-10T07:36:29;21.70;83.90
680;DHT22;322;48.846;9.230;2023-06-10T07:38:57;21.70;83.80
680;DHT22;322;48.846;9.230;2023-06-10T07:41:26;21.90;83.10
680;DHT22;322;48.846;9.230;2023-06-10T07:43:54;22.00;82.10
680;DHT22;322;48.846;9.230;2023-06-10T07:46:23;22.10;83.60
680;DHT22;322;48.846;9.230;2023-06-10T07:48:53;22.20;83.20
680;DHT22;322;48.846;9.230;2023-06-10T07:51:22;22.20;82.20
680;DHT22;322;48.846;9.230;2023-06-10T07:53:50;22.30;84.20
680;DHT22;322;48.846;9.230;2023-06-10T07:56:18;22.40;81.60
680;DHT22;322;48.846;9.230;2023-06-10T07:58:49;22.40;79.60
680;DHT22;322;48.846;9.230;2023-06-10T08:01:17;22.50;80.80
680;DHT22;322;48.846;9.230;2023-06-10T08:03:45;22.60;79.00
680;DHT22;322;48.846;9.230;2023-06-10T08:06:13;22.60;77.60
680;DHT22;322;48.846;9.230;2023-06-10T08:08:41;22.70;79.40
680;DHT22;322;48.846;9.230;2023-06-10T08:11:11;22.80;78.30
680;DHT22;322;48.846;9.230;2023-06-10T08:13:39;22.90;79.10
680;DHT22;322;48.846;9.230;2023-06-10T08:16:08;23.00;78.50
680;DHT22;322;48.846;9.230;2023-06-10T08:18:36;23.10;76.90
680;DHT22;322;48.846;9.230;2023-06-10T08:21:04;23.20;78.20
680;DHT22;322;48.846;9.230;2023-06-10T08:23:32;23.30;78.40
680;DHT22;322;48.846;9.230;2023-06-10T08:26:00;23.50;79.40
680;DHT22;322;48.846;9.230;2023-06-10T08:28:28;23.70;79.00
680;DHT22;322;48.846;9.230;2023-06-10T08:30:56;23.80;74.00
680;DHT22;322;48.846;9.230;2023-06-10T08:33:25;23.80;75.10
680;DHT22;322;48.846;9.230;2023-06-10T08:35:53;23.90;73.80
680;DHT22;322;48.846;9.230;2023-06-10T08:38:21;24.10;72.30
680;DHT22;322;48.846;9.230;2023-06-10T08:40:50;24.20;72.10
680;DHT22;322;48.846;9.230;2023-06-10T08:43:31;24.30;70.80
680;DHT22;322;48.846;9.230;2023-06-10T08:46:01;24.30;70.90
680;DHT22;322;48.846;9.230;2023-06-10T08:48:30;24.40;69.70
680;DHT22;322;48.846;9.230;2023-06-10T08:50:59;24.50;69.10
680;DHT22;322;48.846;9.230;2023-06-10T08:53:29;24.60;70.30
680;DHT22;322;48.846;9.230;2023-06-10T08:56:01;24.70;67.10
680;DHT22;322;48.846;9.230;2023-06-10T08:58:31;24.80;69.70
680;DHT22;322;48.846;9.230;2023-06-10T09:01:02;24.90;68.00
680;DHT22;322;48.846;9.230;2023-06-10T09:03:31;25.10;65.30
680;DHT22;322;48.846;9.230;2023-06-10T09:06:00;25.30;64.60
680;DHT22;322;48.846;9.230;2023-06-10T09:08:30;25.30;63.10
680;DHT22;322;48.846;9.230;2023-06-10T09:10:58;25.50;63.30
680;DHT22;322;48.846;9.230;2023-06-10T09:13:26;25.70;63.40
680;DHT22;322;48.846;9.230;2023-06-10T09:15:55;25.80;64.10
680;DHT22;322;48.846;9.230;2023-06-10T09:18:27;26.00;61.40
680;DHT22;322;48.846;9.230;2023-06-10T09:20:56;26.20;63.80
680;DHT22;322;48.846;9.230;2023-06-10T09:23:25;26.50;64.90
680;DHT22;322;48.846;9.230;2023-06-10T09:25:56;26.80;63.00
680;DHT22;322;48.846;9.230;2023-06-10T09:28:25;27.00;59.80
680;DHT22;322;48.846;9.230;2023-06-10T09:31:02;27.30;59.90
680;DHT22;322;48.846;9.230;2023-06-10T09:33:31;27.60;56.60
680;DHT22;322;48.846;9.230;2023-06-10T09:36:01;27.70;54.90
680;DHT22;322;48.846;9.230;2023-06-10T09:38:30;27.80;57.50
680;DHT22;322;48.846;9.230;2023-06-10T09:40:59;28.00;58.50
680;DHT22;322;48.846;9.230;2023-06-10T09:43:39;28.30;55.20
680;DHT22;322;48.846;9.230;2023-06-10T09:46:14;28.70;54.50
680;DHT22;322;48.846;9.230;2023-06-10T09:48:43;29.00;55.40
680;DHT22;322;48.846;9.230;2023-06-10T09:51:14;29.20;53.50
680;DHT22;322;48.846;9.230;2023-06-10T09:53:48;29.20;50.50
680;DHT22;322;48.846;9.230;2023-06-10T09:56:15;28.80;51.50
680;DHT22;322;48.846;9.230;2023-06-10T09:58:45;28.30;53.30
680;DHT22;322;48.846;9.230;2023-06-10T10:01:14;28.00;53.60
680;DHT22;322;48.846;9.230;2023-06-10T10:03:44;28.20;54.40
680;DHT22;322;48.846;9.230;2023-06-10T10:06:15;28.60;54.00
680;DHT22;322;48.846;9.230;2023-06-10T10:08:43;28.60;50.90
680;DHT22;322;48.846;9.230;2023-06-10T10:11:11;27.60;52.70
680;DHT22;322;48.846;9.230;2023-06-10T10:13:39;27.40;53.90
680;DHT22;322;48.846;9.230;2023-06-10T10:16:11;27.60;55.60
680;DHT22;322;48.846;9.230;2023-06-10T10:18:40;27.80;55.40
680;DHT22;322;48.846;9.230;2023-06-10T10:21:14;27.80;55.00
680;DHT22;322;48.846;9.230;2023-06-10T10:23:49;28.40;53.80
680;DHT22;322;48.846;9.230;2023-06-10T10:26:19;29.00;49.70
680;DHT22;322;48.846;9.230;2023-06-10T10:28:53;29.40;50.50
680;DHT22;322;48.846;9.230;2023-06-10T10:31:27;29.80;54.90
680;DHT22;322;48.846;9.230;2023-06-10T10:33:59;30.70;50.90
680;DHT22;322;48.846;9.230;2023-06-10T10:36:29;31.40;48.40
680;DHT22;322;48.846;9.230;2023-06-10T10:38:57;31.90;46.00
680;DHT22;322;48.846;9.230;2023-06-10T10:41:28;32.30;45.70
680;DHT22;322;48.846;9.230;2023-06-10T10:43:58;32.90;45.70
680;DHT22;322;48.846;9.230;2023-06-10T10:46:26;32.90;42.80
680;DHT22;322;48.846;9.230;2023-06-10T10:48:55;31.90;43.40
680;DHT22;322;48.846;9.230;2023-06-10T10:51:24;31.50;48.40
680;DHT22;322;48.846;9.230;2023-06-10T10:54:12;31.80;47.10
680;DHT22;322;48.846;9.230;2023-06-10T10:57:11;32.60;45.70
680;DHT22;322;48.846;9.230;2023-06-10T10:59:52;33.40;43.50
680;DHT22;322;48.846;9.230;2023-06-10T11:02:37;34.20;41.70
680;DHT22;322;48.846;9.230;2023-06-10T11:05:10;33.80;39.80
680;DHT22;322;48.846;9.230;2023-06-10T11:07:39;33.20;40.90
680;DHT22;322;48.846;9.230;2023-06-10T11:10:10;31.60;40.30
680;DHT22;322;48.846;9.230;2023-06-10T11:12:49;30.00;43.20
680;DHT22;322;48.846;9.230;2023-06-10T11:15:23;28.90;45.60
680;DHT22;322;48.846;9.230;2023-06-10T11:18:08;28.80;48.30
680;DHT22;322;48.846;9.230;2023-06-10T11:21:00;28.70;46.00
680;DHT22;322;48.846;9.230;2023-06-10T11:23:39;28.70;46.60
680;DHT22;322;48.846;9.230;2023-06-10T11:26:29;28.50;46.40
680;DHT22;322;48.846;9.230;2023-06-10T11:29:07;28.20;48.90
680;DHT22;322;48.846;9.230;2023-06-10T11:31:41;27.70;48.20
680;DHT22;322;48.846;9.230;2023-06-10T11:34:10;27.70;49.50
680;DHT22;322;48.846;9.230;2023-06-10T11:36:39;28.60;47.70
680;DHT22;322;48.846;9.230;2023-06-10T11:39:09;29.90;45.20
680;DHT22;322;48.846;9.230;2023-06-10T11:41:39;30.90;42.20
680;DHT22;322;48.846;9.230;2023-06-10T11:44:08;31.80;45.60
680;DHT22;322;48.846;9.230;2023-06-10T11:46:37;33.00;44.30
680;DHT22;322;48.846;9.230;2023-06-10T11:49:06;33.40;39.20
680;DHT22;322;48.846;9.230;2023-06-10T11:51:35;33.60;40.90
680;DHT22;322;48.846;9.230;2023-06-10T11:54:04;33.90;40.90
680;DHT22;322;48.846;9.230;2023-06-10T11:56:32;34.00;38.50
680;DHT22;322;48.846;9.230;2023-06-10T11:59:03;33.60;38.80
680;DHT22;322;48.846;9.230;2023-06-10T12:01:36;33.30;36.20
680;DHT22;322;48.846;9.230;2023-06-10T12:04:09;33.00;37.90
680;DHT22;322;48.846;9.230;2023-06-10T12:06:39;31.90;40.80
680;DHT22;322;48.846;9.230;2023-06-10T12:09:12;31.70;42.50
680;DHT22;322;48.846;9.230;2023-06-10T12:11:51;31.50;41.60
680;DHT22;322;48.846;9.230;2023-06-10T12:14:56;31.00;41.00
680;DHT22;322;48.846;9.230;2023-06-10T12:17:37;30.20;41.60
680;DHT22;322;48.846;9.230;2023-06-10T12:20:06;30.00;44.40
680;DHT22;322;48.846;9.230;2023-06-10T12:22:39;29.10;43.60
680;DHT22;322;48.846;9.230;2023-06-10T12:25:08;28.70;44.10
680;DHT22;322;48.846;9.230;2023-06-10T12:27:41;28.50;45.50
680;DHT22;322;48.846;9.230;2023-06-10T12:30:20;28.20;45.90
680;DHT22;322;48.846;9.230;2023-06-10T12:32:50;28.40;45.10
680;DHT22;322;48.846;9.230;2023-06-10T12:35:20;28.70;46.20
680;DHT22;322;48.846;9.230;2023-06-10T12:37:58;28.90;43.90
680;DHT22;322;48.846;9.230;2023-06-10T12:40:28;29.10;43.80
680;DHT22;322;48.846;9.230;2023-06-10T12:42:56;30.20;45.00
680;DHT22;322;48.846;9.230;2023-06-10T12:45:29;31.80;42.90
680;DHT22;322;48.846;9.230;2023-06-10T12:48:08;32.20;38.70
680;DHT22;322;48.846;9.230;2023-06-10T12:50:38;31.70;40.90
680;DHT22;322;48.846;9.230;2023-06-10T12:53:07;32.20;40.00
680;DHT22;322;48.846;9.230;2023-06-10T12:55:35;33.50;37.10
680;DHT22;322;48.846;9.230;2023-06-10T12:58:03;32.80;37.10
680;DHT22;322;48.846;9.230;2023-06-10T13:00:33;32.70;42.10
680;DHT22;322;48.846;9.230;2023-06-10T13:03:02;33.60;40.50
680;DHT22;322;48.846;9.230;2023-06-10T13:05:33;34.40;40.00
680;DHT22;322;48.846;9.230;2023-06-10T13:08:02;35.20;36.70
680;DHT22;322;48.846;9.230;2023-06-10T13:10:30;35.70;32.10
680;DHT22;322;48.846;9.230;2023-06-10T13:12:58;35.90;35.40
680;DHT22;322;48.846;9.230;2023-06-10T13:15:26;36.90;33.70
680;DHT22;322;48.846;9.230;2023-06-10T13:17:55;37.80;33.20
680;DHT22;322;48.846;9.230;2023-06-10T13:20:23;38.20;31.30
680;DHT22;322;48.846;9.230;2023-06-10T13:22:52;38.30;31.20
680;DHT22;322;48.846;9.230;2023-06-10T13:25:20;38.00;30.00
680;DHT22;322;48.846;9.230;2023-06-10T13:27:48;37.50;32.20
680;DHT22;322;48.846;9.230;2023-06-10T13:30:16;37.20;31.40
680;DHT22;322;48.846;9.230;2023-06-10T13:32:44;36.00;32.80
680;DHT22;322;48.846;9.230;2023-06-10T13:35:14;34.80;35.10
680;DHT22;322;48.846;9.230;2023-06-10T13:37:42;33.70;36.30
680;DHT22;322;48.846;9.230;2023-06-10T13:40:11;33.70;39.20
680;DHT22;322;48.846;9.230;2023-06-10T13:42:39;34.80;37.30
680;DHT22;322;48.846;9.230;2023-06-10T13:45:08;36.00;34.10
680;DHT22;322;48.846;9.230;2023-06-10T13:47:36;36.70;33.10
680;DHT22;322;48.846;9.230;2023-06-10T13:50:06;35.90;33.00
680;DHT22;322;48.846;9.230;2023-06-10T13:52:36;35.70;33.90
680;DHT22;322;48.846;9.230;2023-06-10T13:55:04;36.30;32.90
680;DHT22;322;48.846;9.230;2023-06-10T13:57:33;36.80;31.70
680;DHT22;322;48.846;9.230;2023-06-10T14:00:01;37.80;30.30
680;DHT22;322;48.846;9.230;2023-06-10T14:02:29;38.30;29.50
680;DHT22;322;48.846;9.230;2023-06-10T14:04:57;38.30;31.00
680;DHT22;322;48.846;9.230;2023-06-10T14:07:25;37.40;30.70
680;DHT22;322;48.846;9.230;2023-06-10T14:09:55;36.60;32.70
680;DHT22;322;48.846;9.230;2023-06-10T14:12:23;36.10;30.60
680;DHT22;322;48.846;9.230;2023-06-10T14:14:51;36.00;32.20
680;DHT22;322;48.846;9.230;2023-06-10T14:17:19;36.30;32.40
680;DHT22;322;48.846;9.230;2023-06-10T14:19:47;37.20;32.10
680;DHT22;322;48.846;9.230;2023-06-10T14:22:15;36.20;31.10
680;DHT22;322;48.846;9.230;2023-06-10T14:24:43;34.50;34.60
680;DHT22;322;48.846;9.230;2023-06-10T14:27:12;32.70;37.10
680;DHT22;322;48.846;9.230;2023-06-10T14:29:40;32.00;38.30
680;DHT22;322;48.846;9.230;2023-06-10T14:32:08;31.60;37.70
680;DHT22;322;48.846;9.230;2023-06-10T14:34:36;30.40;38.60
680;DHT22;322;48.846;9.230;2023-06-10T14:37:06;30.10;43.00
680;DHT22;322;48.846;9.230;2023-06-10T14:39:34;30.50;41.80
680;DHT22;322;48.846;9.230;2023-06-10T14:42:03;32.00;38.20
680;DHT22;322;48.846;9.230;2023-06-10T14:44:33;33.30;37.90
680;DHT22;322;48.846;9.230;2023-06-10T14:47:01;34.40;34.00
680;DHT22;322;48.846;9.230;2023-06-10T14:49:29;35.70;35.80
680;DHT22;322;48.846;9.230;2023-06-10T14:51:57;36.90;33.90
680;DHT22;322;48.846;9.230;2023-06-10T14:54:25;37.50;32.60
680;DHT22;322;48.846;9.230;2023-06-10T14:56:54;37.50;33.40
680;DHT22;322;48.846;9.230;2023-06-10T14:59:22;38.00;32.80
680;DHT22;322;48.846;9.230;2023-06-10T15:01:52;38.10;31.80
680;DHT22;322;48.846;9.230;2023-06-10T15:04:20;38.00;32.00
680;DHT22;322;48.846;9.230;2023-06-10T15:06:50;37.70;31.00
680;DHT22;322;48.846;9.230;2023-06-10T15:09:18;37.80;30.70
680;DHT22;322;48.846;9.230;2023-06-10T15:11:46;38.00;31.80
680;DHT22;322;48.846;9.230;2023-06-10T15:14:14;37.50;31.40
680;DHT22;322;48.846;9.230;2023-06-10T15:16:42;37.30;31.10
680;DHT22;322;48.846;9.230;2023-06-10T15:19:12;37.40;30.80
680;DHT22;322;48.846;9.230;2023-06-10T15:21:40;37.30;30.40
680;DHT22;322;48.846;9.230;2023-06-10T15:24:08;36.90;30.00
680;DHT22;322;48.846;9.230;2023-06-10T15:26:36;36.50;30.50
680;DHT22;322;48.846;9.230;2023-06-10T15:29:04;36.70;31.70
680;DHT22;322;48.846;9.230;2023-06-10T15:31:33;36.70;29.90
680;DHT22;322;48.846;9.230;2023-06-10T15:34:02;35.80;32.50
680;DHT22;322;48.846;9.230;2023-06-10T15:36:31;35.70;34.70
680;DHT22;322;48.846;9.230;2023-06-10T15:39:01;35.40;33.90
680;DHT22;322;48.846;9.230;2023-06-10T15:41:30;35.60;35.20
680;DHT22;322;48.846;9.230;2023-06-10T15:43:58;35.10;33.70
680;DHT22;322;48.846;9.230;2023-06-10T15:46:28;34.20;33.60
680;DHT22;322;48.846;9.230;2023-06-10T15:48:57;33.00;34.00
680;DHT22;322;48.846;9.230;2023-06-10T15:51:25;32.10;35.70
680;DHT22;322;48.846;9.230;2023-06-10T15:53:55;31.80;35.30
680;DHT22;322;48.846;9.230;2023-06-10T15:56:23;32.00;37.10
680;DHT22;322;48.846;9.230;2023-06-10T15:58:52;33.10;36.20
680;DHT22;322;48.846;9.230;2023-06-10T16:01:20;33.70;37.10
680;DHT22;322;48.846;9.230;2023-06-10T16:03:48;33.50;33.50
680;DHT22;322;48.846;9.230;2023-06-10T16:06:16;32.40;35.40
680;DHT22;322;48.846;9.230;2023-06-10T16:08:44;31.90;37.30
680;DHT22;322;48.846;9.230;2023-06-10T16:11:14;31.80;37.90
680;DHT22;322;48.846;9.230;2023-06-10T16:13:42;31.90;38.20
680;DHT22;322;48.846;9.230;2023-06-10T16:16:10;31.90;37.20
680;DHT22;322;48.846;9.230;2023-06-10T16:18:38;31.80;37.40
680;DHT22;322;48.846;9.230;2023-06-10T16:21:06;31.80;39.80
680;DHT22;322;48.846;9.230;2023-06-10T16:23:34;32.60;39.10
680;DHT22;322;48.846;9.230;2023-06-10T16:26:04;33.50;37.30
680;DHT22;322;48.846;9.230;2023-06-10T16:28:33;32.60;35.20
680;DHT22;322;48.846;9.230;2023-06-10T16:31:01;32.00;38.60
680;DHT22;322;48.846;9.230;2023-06-10T16:33:30;32.50;39.70
680;DHT22;322;48.846;9.230;2023-06-10T16:35:58;33.10;36.70
680;DHT22;322;48.846;9.230;2023-06-10T16:38:26;33.40;37.10
680;DHT22;322;48.846;9.230;2023-06-10T16:40:54;33.20;35.60
680;DHT22;322;48.846;9.230;2023-06-10T16:43:24;32.70;36.20
680;DHT22;322;48.846;9.230;2023-06-10T16:45:54;32.80;37.80
680;DHT22;322;48.846;9.230;2023-06-10T16:48:23;32.90;38.00